Time;durP1;ratioP1;P1;durP2;ratioP2;P2;SDS_P1;SDS_P2;PMS_P1;PMS_P2;Temp;Humidity;BMP_temperature;BMP_pressure;BME280_temperature;BME280_humidity;BME280_pressure;Samples;Min_cycle;Max_cycle;Signal;HPM_P1;HPM_P2
2021/12/08 00:00:40;;;;;;;;;;;;;;;-1.93;100.00;89716.84;5092029;28;19978;-67
2021/12/08 00:03:08;;;;;;;;;;;;;;;-1.99;100.00;89714.50;5091772;28;19920;-68
2021/12/08 00:05:33;;;;;;;;;;;;;;;-1.99;100.00;89717.91;5091001;28;19978;-68
2021/12/08 00:07:59;;;;;;;;;;;;;;;-1.81;100.00;89722.53;5091931;28;19931;-67
2021/12/08 00:13:09;;;;;;;;;;;;;;;-1.83;100.00;89723.88;5091392;28;19955;-68
2021/12/08 00:15:39;;;;;;;;;;;;;;;-1.87;100.00;89728.03;5091515;28;20453;-67
2021/12/08 00:18:06;;;;;;;;;;;;;;;-1.82;100.00;89728.03;5091415;28;20397;-67
2021/12/08 00:20:33;;;;;;;;;;;;;;;-1.85;100.00;89728.56;5091224;28;19916;-67
2021/12/08 00:23:02;;;;;;;;;;;;;;;-1.93;100.00;89721.25;5091745;28;20454;-67
2021/12/08 00:25:28;;;;;;;;;;;;;;;-1.87;100.00;89728.81;5091469;28;20370;-67
2021/12/08 00:27:53;;;;;;;;;;;;;;;-1.89;100.00;89722.31;5091460;28;19973;-68
2021/12/08 00:30:19;;;;;;;;;;;;;;;-1.95;100.00;89728.56;5091385;28;19977;-67
2021/12/08 00:32:46;;;;;;;;;;;;;;;-1.82;100.00;89739.22;5091604;28;19927;-68
2021/12/08 00:35:12;;;;;;;;;;;;;;;-1.87;100.00;89741.84;5091110;28;19916;-68
2021/12/08 00:37:37;;;;;;;;;;;;;;;-1.86;100.00;89753.06;5091484;28;19916;-67
2021/12/08 00:40:07;;;;;;;;;;;;;;;-1.78;100.00;89749.13;5091567;28;19923;-68
2021/12/08 00:42:33;;;;;;;;;;;;;;;-1.78;100.00;89752.50;5090815;28;19958;-68
2021/12/08 00:44:59;;;;;;;;;;;;;;;-1.84;100.00;89756.19;5091456;28;20360;-68
2021/12/08 00:47:25;;;;;;;;;;;;;;;-1.92;100.00;89754.09;5091382;28;19963;-67
2021/12/08 00:49:50;;;;;;;;;;;;;;;-1.87;100.00;89754.09;5091117;28;20401;-67
2021/12/08 00:52:16;;;;;;;;;;;;;;;-1.87;100.00;89761.94;5091729;28;20313;-68
2021/12/08 00:54:41;;;;;;;;;;;;;;;-1.87;100.00;89767.91;5091094;28;20366;-68
2021/12/08 00:57:07;;;;;;;;;;;;;;;-1.97;100.00;89767.13;5090930;28;19920;-68
2021/12/08 00:59:33;;;;;;;;;;;;;;;-1.91;100.00;89766.84;5091267;28;19950;-68
2021/12/08 01:02:02;;;;;;;;;;;;;;;-1.96;100.00;89769.47;5091183;28;19920;-67
2021/12/08 01:04:34;;;;;;;;;;;;;;;-1.89;100.00;89764.03;5090843;28;19924;-68
2021/12/08 01:07:01;;;;;;;;;;;;;;;-1.95;100.00;89765.03;5091097;28;20359;-67
2021/12/08 01:09:26;;;;;;;;;;;;;;;-1.99;100.00;89769.22;5091201;28;19916;-67
2021/12/08 01:11:51;;;;;;;;;;;;;;;-1.97;100.00;89769.75;5090887;28;19916;-67
2021/12/08 01:14:18;;;;;;;;;;;;;;;-2.00;100.00;89768.44;5091181;28;20336;-67
2021/12/08 01:16:44;;;;;;;;;;;;;;;-2.00;100.00;89768.44;5091300;28;19969;-67
2021/12/08 01:19:09;;;;;;;;;;;;;;;-1.96;100.00;89773.91;5090509;28;20393;-68
2021/12/08 01:21:35;;;;;;;;;;;;;;;-1.88;100.00;89774.19;5091174;28;20499;-67
2021/12/08 01:24:00;;;;;;;;;;;;;;;-1.87;100.00;89775.75;5091101;28;20481;-68
2021/12/08 01:26:27;;;;;;;;;;;;;;;-1.90;100.00;89778.06;5090961;28;19923;-67
2021/12/08 01:28:55;;;;;;;;;;;;;;;-1.93;100.00;89774.16;5091165;28;20420;-67
2021/12/08 01:31:21;;;;;;;;;;;;;;;-1.95;100.00;89775.47;5090929;28;19923;-68
2021/12/08 01:33:46;;;;;;;;;;;;;;;-1.86;100.00;89781.72;5090465;28;20330;-68
2021/12/08 01:36:12;;;;;;;;;;;;;;;-1.86;100.00;89774.69;5092447;28;19981;-68
2021/12/08 01:38:37;;;;;;;;;;;;;;;-1.85;100.00;89772.88;5094646;28;19924;-68
2021/12/08 01:41:04;;;;;;;;;;;;;;;-1.86;100.00;89779.91;5094198;28;20385;-68
2021/12/08 01:43:40;;;;;;;;;;;;;;;-1.96;100.00;89772.09;5094567;28;19985;-67
2021/12/08 01:46:07;;;;;;;;;;;;;;;-2.00;100.00;89781.47;5094421;28;19922;-68
2021/12/08 01:48:37;;;;;;;;;;;;;;;-2.02;100.00;89780.97;5094013;28;19923;-67
2021/12/08 01:51:10;;;;;;;;;;;;;;;-1.98;100.00;89789.03;5094444;28;20019;-68
2021/12/08 01:53:39;;;;;;;;;;;;;;;-2.03;100.00;89783.84;5094535;28;19916;-68
2021/12/08 01:56:07;;;;;;;;;;;;;;;-1.93;100.00;89787.19;5093771;28;19944;-67
2021/12/08 01:58:32;;;;;;;;;;;;;;;-1.93;100.00;89786.41;5093080;28;19920;-68
2021/12/08 02:00:59;;;;;;;;;;;;;;;-1.91;100.00;89786.94;5094202;28;19926;-68
2021/12/08 02:03:25;;;;;;;;;;;;;;;-1.92;100.00;89790.56;5093515;28;19931;-68
2021/12/08 02:05:51;;;;;;;;;;;;;;;-2.00;100.00;89789.28;5094107;28;19916;-67
2021/12/08 02:08:17;;;;;;;;;;;;;;;-2.01;100.00;89786.94;5075871;28;19973;-68
2021/12/08 02:10:42;;;;;;;;;;;;;;;-1.99;100.00;89792.69;5093382;28;19924;-67
2021/12/08 02:13:09;;;;;;;;;;;;;;;-1.95;100.00;89793.72;5092740;28;20401;-68
2021/12/08 02:15:36;;;;;;;;;;;;;;;-2.00;100.00;89801.53;5075658;28;20350;-68
2021/12/08 02:18:02;;;;;;;;;;;;;;;-1.92;100.00;89795.78;5093373;28;20042;-67
2021/12/08 02:20:28;;;;;;;;;;;;;;;-1.85;100.00;89797.09;5093850;28;20026;-67
2021/12/08 02:22:53;;;;;;;;;;;;;;;-1.84;100.00;89797.88;5093550;28;19920;-68
2021/12/08 02:25:20;;;;;;;;;;;;;;;-1.86;100.00;89797.38;5093168;28;19923;-68
2021/12/08 02:27:46;;;;;;;;;;;;;;;-1.86;100.00;89794.75;5093669;28;19923;-68
2021/12/08 02:30:20;;;;;;;;;;;;;;;-1.93;100.00;89805.44;5075549;28;19920;-68
2021/12/08 02:48:52;;;;;;;;;;;;;;;-1.78;100.00;89811.69;5091832;28;20081;-68
2021/12/08 02:51:19;;;;;;;;;;;;;;;-1.79;100.00;89825.75;5093304;28;20394;-67
2021/12/08 02:53:44;;;;;;;;;;;;;;;-1.78;100.00;89822.88;5093043;28;19979;-67
2021/12/08 02:56:10;;;;;;;;;;;;;;;-1.84;100.00;89821.34;5091457;28;20396;-68
2021/12/08 02:58:35;;;;;;;;;;;;;;;-1.85;100.00;89828.38;5092779;28;20337;-68
2021/12/08 03:01:02;;;;;;;;;;;;;;;-1.82;100.00;89829.69;5093083;28;20379;-68
2021/12/08 03:03:28;;;;;;;;;;;;;;;-1.88;100.00;89820.31;5076667;28;19943;-68
2021/12/08 03:05:53;;;;;;;;;;;;;;;-1.88;100.00;89828.13;5078635;28;20377;-68
2021/12/08 03:08:18;;;;;;;;;;;;;;;-1.87;100.00;89827.09;5092904;28;20029;-67
2021/12/08 03:10:45;;;;;;;;;;;;;;;-1.85;100.00;89830.22;5092188;28;19959;-67
2021/12/08 03:13:11;;;;;;;;;;;;;;;-1.89;100.00;89829.94;5092741;28;20454;-67
2021/12/08 03:15:37;;;;;;;;;;;;;;;-1.90;100.00;89835.41;5092970;28;19916;-68
2021/12/08 03:18:03;;;;;;;;;;;;;;;-1.89;100.00;89832.56;5092346;28;19931;-67
2021/12/08 03:20:40;;;;;;;;;;;;;;;-1.86;100.00;89841.69;5092691;28;20401;-68
2021/12/08 03:23:11;;;;;;;;;;;;;;;-1.90;100.00;89838.78;5092360;28;19916;-67
2021/12/08 03:25:40;;;;;;;;;;;;;;;-1.94;100.00;89844.78;5092009;28;19916;-67
2021/12/08 03:28:29;;;;;;;;;;;;;;;-1.95;100.00;89845.81;5092629;28;20316;-67
2021/12/08 03:33:23;;;;;;;;;;;;;;;-1.88;100.00;89843.75;5091961;28;19977;-67
2021/12/08 03:35:48;;;;;;;;;;;;;;;-1.84;100.00;89850.78;5092044;28;19916;-67
2021/12/08 03:38:15;;;;;;;;;;;;;;;-1.89;100.00;89842.97;5092355;28;19939;-67
2021/12/08 03:40:41;;;;;;;;;;;;;;;-1.87;100.00;89848.72;5091937;28;19916;-67
2021/12/08 03:43:06;;;;;;;;;;;;;;;-1.84;100.00;89850.78;5092312;28;20032;-67
2021/12/08 03:45:37;;;;;;;;;;;;;;;-1.81;100.00;89854.69;5092114;28;19920;-67
2021/12/08 03:48:07;;;;;;;;;;;;;;;-1.82;100.00;89858.34;5091520;28;19934;-67
2021/12/08 03:50:34;;;;;;;;;;;;;;;-1.85;100.00;89861.47;5092226;28;20008;-67
2021/12/08 03:52:59;;;;;;;;;;;;;;;-1.84;100.00;89865.66;5092155;28;19973;-67
2021/12/08 03:55:25;;;;;;;;;;;;;;;-1.87;100.00;89860.97;5091539;28;19924;-67
2021/12/08 03:57:51;;;;;;;;;;;;;;;-1.83;100.00;89862.78;5092046;28;19970;-67
2021/12/08 04:00:18;;;;;;;;;;;;;;;-1.85;100.00;89869.28;5091512;28;19916;-67
2021/12/08 04:02:44;;;;;;;;;;;;;;;-1.82;100.00;89869.56;5091483;28;19972;-68
2021/12/08 04:05:10;;;;;;;;;;;;;;;-1.84;100.00;89869.03;5092863;28;19920;-68
2021/12/08 04:07:44;;;;;;;;;;;;;;;-1.77;100.00;89870.59;5093067;28;19916;-68
2021/12/08 04:10:18;;;;;;;;;;;;;;;-1.78;100.00;89872.41;5092091;28;19916;-68
2021/12/08 04:12:45;;;;;;;;;;;;;;;-1.84;100.00;89876.84;5091578;28;20029;-68
2021/12/08 04:15:11;;;;;;;;;;;;;;;-1.81;100.00;89878.16;5074365;28;19927;-68
2021/12/08 04:17:38;;;;;;;;;;;;;;;-1.82;100.00;89881.81;5069465;28;19916;-70
2021/12/08 04:20:09;;;;;;;;;;;;;;;-1.85;100.00;89892.75;5071388;28;19923;-73
2021/12/08 04:22:36;;;;;;;;;;;;;;;-1.81;100.00;89894.56;5071179;28;19917;-71
2021/12/08 04:25:06;;;;;;;;;;;;;;;-1.81;100.00;89893.78;5070468;28;19927;-69
2021/12/08 04:27:33;;;;;;;;;;;;;;;-1.78;100.00;89901.09;5071256;28;19923;-69
2021/12/08 04:29:59;;;;;;;;;;;;;;;-1.77;100.00;89889.63;5071229;28;19924;-67
2021/12/08 04:32:27;;;;;;;;;;;;;;;-1.77;100.00;89897.44;5070803;28;19916;-65
2021/12/08 04:34:55;;;;;;;;;;;;;;;-1.82;100.00;89907.88;5070736;28;19920;-67
2021/12/08 04:37:27;;;;;;;;;;;;;;;-1.83;100.00;89903.69;5070540;28;20004;-67
2021/12/08 04:40:10;;;;;;;;;;;;;;;-1.79;100.00;89904.75;5070634;28;19920;-66
2021/12/08 04:49:07;;;;;;;;;;;;;;;-1.78;100.00;89905.53;5001437;28;20413;-67
2021/12/08 04:51:48;;;;;;;;;;;;;;;-1.81;100.00;89919.84;5065183;28;19983;-67
2021/12/08 05:03:18;;;;;;;;;;;;;;;-1.73;100.00;89918.56;5070482;28;19932;-68
2021/12/08 05:05:48;;;;;;;;;;;;;;;-1.82;100.00;89923.50;5070016;28;19916;-67
2021/12/08 05:08:20;;;;;;;;;;;;;;;-1.81;100.00;89925.84;5070426;28;20003;-67
2021/12/08 05:10:48;;;;;;;;;;;;;;;-1.88;100.00;89935.75;5071780;28;19917;-66
2021/12/08 05:13:14;;;;;;;;;;;;;;;-1.85;100.00;89929.25;5074544;28;20003;-66
2021/12/08 05:15:48;;;;;;;;;;;;;;;-1.86;100.00;89932.91;5073809;28;19920;-66
2021/12/08 05:18:15;;;;;;;;;;;;;;;-1.84;100.00;89928.19;5074661;28;19927;-66
2021/12/08 05:20:44;;;;;;;;;;;;;;;-1.77;100.00;89936.53;5074939;28;19916;-67
2021/12/08 05:23:13;;;;;;;;;;;;;;;-1.72;100.00;89943.59;5074172;28;20453;-67
2021/12/08 05:25:39;;;;;;;;;;;;;;;-1.73;100.00;89945.44;5074476;28;19974;-67
2021/12/08 05:28:08;;;;;;;;;;;;;;;-1.66;100.00;89943.34;5074236;28;19916;-67
2021/12/08 05:30:40;;;;;;;;;;;;;;;-1.70;100.00;89947.50;5074055;28;19924;-67
2021/12/08 05:33:07;;;;;;;;;;;;;;;-1.74;100.00;89948.28;5074363;28;19987;-67
2021/12/08 05:35:33;;;;;;;;;;;;;;;-1.74;100.00;89956.88;5074168;28;20065;-67
2021/12/08 05:37:58;;;;;;;;;;;;;;;-1.73;100.00;89958.47;5073852;28;19942;-67
2021/12/08 05:40:30;;;;;;;;;;;;;;;-1.69;100.00;89959.50;5074048;28;20374;-67
2021/12/08 05:42:55;;;;;;;;;;;;;;;-1.76;100.00;89955.56;5073891;28;19920;-66
2021/12/08 05:45:21;;;;;;;;;;;;;;;-1.72;100.00;89957.41;5073473;28;19974;-66
2021/12/08 05:47:48;;;;;;;;;;;;;;;-1.76;100.00;89961.56;5074195;28;19920;-67
2021/12/08 05:50:16;;;;;;;;;;;;;;;-1.80;100.00;89960.53;5074078;28;19921;-67
2021/12/08 05:52:42;;;;;;;;;;;;;;;-1.80;100.00;89968.34;5073492;28;19942;-66
2021/12/08 05:55:08;;;;;;;;;;;;;;;-1.79;100.00;89972.50;5074016;28;19925;-67
2021/12/08 05:57:35;;;;;;;;;;;;;;;-1.77;100.00;89969.66;5074007;28;20390;-67
2021/12/08 06:00:03;;;;;;;;;;;;;;;-1.70;100.00;89973.59;5072214;28;20385;-66
2021/12/08 06:02:31;;;;;;;;;;;;;;;-1.74;100.00;89969.91;5073769;28;19951;-67
2021/12/08 06:04:58;;;;;;;;;;;;;;;-1.82;100.00;89973.03;5073458;28;19926;-67
2021/12/08 06:07:23;;;;;;;;;;;;;;;-1.87;100.00;89976.41;5073445;28;19916;-67
2021/12/08 06:09:50;;;;;;;;;;;;;;;-1.86;100.00;89977.19;5073922;28;20404;-67
2021/12/08 06:12:15;;;;;;;;;;;;;;;-1.87;100.00;89984.25;5073708;28;20275;-68
2021/12/08 06:14:41;;;;;;;;;;;;;;;-1.82;100.00;89989.44;5073271;28;20031;-67
2021/12/08 06:17:08;;;;;;;;;;;;;;;-1.82;100.00;89986.06;5073383;28;19917;-67
2021/12/08 06:19:36;;;;;;;;;;;;;;;-1.80;100.00;89981.38;5073512;28;20019;-67
2021/12/08 06:22:02;;;;;;;;;;;;;;;-1.78;100.00;90000.16;5073048;28;19916;-67
2021/12/08 06:24:27;;;;;;;;;;;;;;;-1.74;100.00;89993.38;5073463;28;19920;-67
2021/12/08 06:26:53;;;;;;;;;;;;;;;-1.82;100.00;89975.63;5075392;28;20002;-68
2021/12/08 06:29:19;;;;;;;;;;;;;;;-1.72;100.00;90000.97;5084771;28;19928;-67
2021/12/08 06:31:46;;;;;;;;;;;;;;;-1.69;100.00;90001.22;5093724;28;20385;-68
2021/12/08 06:34:12;;;;;;;;;;;;;;;-1.64;100.00;90003.81;5093769;28;19951;-68
2021/12/08 06:36:43;;;;;;;;;;;;;;;-1.58;100.00;89996.78;5093063;28;20446;-68
2021/12/08 06:39:11;;;;;;;;;;;;;;;-1.61;100.00;89999.91;5076711;28;19917;-69
2021/12/08 06:41:38;;;;;;;;;;;;;;;-1.58;100.00;90002.00;5065548;28;19950;-68
2021/12/08 06:44:07;;;;;;;;;;;;;;;-1.65;100.00;90009.31;5072683;28;19912;-68
2021/12/08 06:46:32;;;;;;;;;;;;;;;-1.66;100.00;90018.94;5073185;28;19999;-67
2021/12/08 06:48:59;;;;;;;;;;;;;;;-1.61;100.00;90018.94;5073013;28;20416;-68
2021/12/08 06:51:29;;;;;;;;;;;;;;;-1.62;100.00;90021.81;5072819;28;20294;-68
2021/12/08 06:53:57;;;;;;;;;;;;;;;-1.55;100.00;90015.31;5072714;28;19913;-68
2021/12/08 06:56:30;;;;;;;;;;;;;;;-1.47;100.00;90019.25;5072945;28;20363;-68
2021/12/08 06:58:58;;;;;;;;;;;;;;;-1.47;100.00;90021.84;5072717;28;20103;-68
2021/12/08 07:01:59;;;;;;;;;;;;;;;-1.41;100.00;90023.44;5072716;28;19917;-68
2021/12/08 07:04:52;;;;;;;;;;;;;;;-1.38;100.00;90025.53;5072860;28;19916;-67
2021/12/08 07:07:18;;;;;;;;;;;;;;;-1.41;100.00;90025.25;5072321;28;20329;-68
2021/12/08 07:09:49;;;;;;;;;;;;;;;-1.31;100.00;90033.09;5072735;28;20345;-67
2021/12/08 07:12:23;;;;;;;;;;;;;;;-1.15;100.00;90028.66;5072549;28;20317;-68
2021/12/08 07:14:53;;;;;;;;;;;;;;;-1.08;100.00;90029.97;5072081;28;19966;-68
2021/12/08 07:17:21;;;;;;;;;;;;;;;-1.09;100.00;90022.41;5072572;28;19917;-68
2021/12/08 07:19:52;;;;;;;;;;;;;;;-1.18;100.00;90035.19;5072094;28;20035;-68
2021/12/08 07:22:24;;;;;;;;;;;;;;;-1.14;100.00;90025.00;5072038;28;20390;-68
2021/12/08 07:24:51;;;;;;;;;;;;;;;-1.08;100.00;90026.59;5072195;28;20002;-68
2021/12/08 07:27:21;;;;;;;;;;;;;;;-1.17;100.00;90023.69;5072245;28;20313;-68
2021/12/08 07:29:48;;;;;;;;;;;;;;;-1.15;100.00;90034.66;5071963;28;19975;-68
2021/12/08 07:32:17;;;;;;;;;;;;;;;-1.02;100.00;90039.38;5071952;28;20019;-68
2021/12/08 07:34:43;;;;;;;;;;;;;;;-1.01;100.00;90033.09;5071640;28;20314;-68
2021/12/08 07:37:17;;;;;;;;;;;;;;;-0.95;100.00;90033.88;5072102;28;19916;-68
2021/12/08 07:39:45;;;;;;;;;;;;;;;-1.02;100.00;90039.38;5072123;28;20409;-68
2021/12/08 07:42:19;;;;;;;;;;;;;;;-1.09;100.00;90031.03;5072143;28;19944;-68
2021/12/08 07:44:46;;;;;;;;;;;;;;;-1.10;100.00;90044.34;5071311;28;19939;-68
2021/12/08 07:47:13;;;;;;;;;;;;;;;-1.06;100.00;90037.53;5072104;28;20546;-68
2021/12/08 07:49:43;;;;;;;;;;;;;;;-0.87;100.00;90040.41;5072018;28;20390;-67
2021/12/08 07:52:14;;;;;;;;;;;;;;;-0.74;100.00;90051.13;5071637;28;19938;-67
2021/12/08 07:54:41;;;;;;;;;;;;;;;-0.51;100.00;90041.94;5071715;28;19924;-68
2021/12/08 07:57:08;;;;;;;;;;;;;;;-0.40;100.00;90056.56;5071509;28;20390;-67
2021/12/08 07:59:36;;;;;;;;;;;;;;;0.00;100.00;90065.38;5071373;28;20416;-67
2021/12/08 08:02:07;;;;;;;;;;;;;;;0.99;100.00;90060.94;5071630;28;20007;-67
2021/12/08 08:04:34;;;;;;;;;;;;;;;1.69;100.00;90077.16;5071902;28;19927;-67
2021/12/08 08:07:00;;;;;;;;;;;;;;;1.05;100.00;90080.03;5071408;28;19920;-67
2021/12/08 08:09:27;;;;;;;;;;;;;;;0.39;100.00;90096.84;5071399;28;20015;-67
2021/12/08 08:12:01;;;;;;;;;;;;;;;0.03;100.00;90085.75;5071413;28;19916;-67
2021/12/08 08:14:32;;;;;;;;;;;;;;;-0.12;100.00;90091.00;5071141;28;19916;-67
2021/12/08 08:16:59;;;;;;;;;;;;;;;0.09;100.00;90100.34;5071693;28;19920;-67
2021/12/08 08:19:28;;;;;;;;;;;;;;;0.29;100.00;90096.88;5071457;28;20017;-67
2021/12/08 08:21:56;;;;;;;;;;;;;;;0.48;100.00;90095.25;5070931;28;19920;-67
2021/12/08 08:24:21;;;;;;;;;;;;;;;0.88;100.00;90091.66;5087037;28;19916;-67
2021/12/08 08:26:49;;;;;;;;;;;;;;;1.39;100.00;90096.53;5071512;28;19920;-67
2021/12/08 08:29:14;;;;;;;;;;;;;;;2.10;100.00;90092.53;5071195;28;19939;-67
2021/12/08 08:31:53;;;;;;;;;;;;;;;2.32;100.00;90098.06;5072961;28;20437;-68
2021/12/08 08:34:19;;;;;;;;;;;;;;;1.56;100.00;90092.75;5072694;28;20305;-68
2021/12/08 08:36:46;;;;;;;;;;;;;;;0.84;100.00;90093.25;5073071;28;20000;-68
2021/12/08 08:39:15;;;;;;;;;;;;;;;0.56;100.00;90099.91;5071604;28;20313;-68
2021/12/08 08:41:43;;;;;;;;;;;;;;;0.34;100.00;90106.56;5071512;28;20366;-68
2021/12/08 08:44:15;;;;;;;;;;;;;;;0.32;100.00;90101.59;5071006;28;19966;-68
2021/12/08 08:46:43;;;;;;;;;;;;;;;0.28;100.00;90097.94;5073470;28;19916;-68
2021/12/08 08:49:11;;;;;;;;;;;;;;;0.47;100.00;90111.19;5075663;28;19924;-68
2021/12/08 08:51:39;;;;;;;;;;;;;;;1.18;100.00;90097.75;5075036;28;20014;-68
2021/12/08 08:54:08;;;;;;;;;;;;;;;1.00;100.00;90093.16;5075314;28;19923;-68
2021/12/08 08:56:36;;;;;;;;;;;;;;;0.65;100.00;90094.13;5075246;28;20015;-68
2021/12/08 08:59:05;;;;;;;;;;;;;;;0.55;100.00;90090.50;5074523;28;19970;-69
2021/12/08 09:01:33;;;;;;;;;;;;;;;0.46;100.00;90097.34;5075030;28;19917;-69
2021/12/08 09:04:09;;;;;;;;;;;;;;;0.25;100.00;90091.41;5075063;28;19939;-68
2021/12/08 09:06:39;;;;;;;;;;;;;;;0.20;100.00;90091.44;5074805;28;20413;-68
2021/12/08 09:09:07;;;;;;;;;;;;;;;-0.10;100.00;90094.91;5075084;28;19916;-68
2021/12/08 09:11:35;;;;;;;;;;;;;;;-0.02;100.00;90091.75;5074733;28;19920;-68
2021/12/08 09:14:19;;;;;;;;;;;;;;;0.06;100.00;90092.25;5074539;28;20411;-68
2021/12/08 09:16:51;;;;;;;;;;;;;;;0.05;100.00;90094.09;5074770;28;19963;-68
2021/12/08 09:19:20;;;;;;;;;;;;;;;0.39;100.00;90099.47;5074285;28;19916;-68
2021/12/08 09:22:01;;;;;;;;;;;;;;;0.13;100.00;90085.69;5074782;28;19923;-68
2021/12/08 09:24:31;;;;;;;;;;;;;;;0.51;100.00;90081.63;5074494;28;19916;-69
2021/12/08 09:26:58;;;;;;;;;;;;;;;0.38;100.00;90081.44;5074274;28;19921;-68
2021/12/08 09:29:29;;;;;;;;;;;;;;;0.37;100.00;90078.03;5074615;28;20003;-69
2021/12/08 09:31:57;;;;;;;;;;;;;;;0.91;100.00;90074.59;5074593;28;19924;-69
2021/12/08 09:34:32;;;;;;;;;;;;;;;0.97;100.00;90073.53;5073991;28;19968;-68
2021/12/08 09:37:03;;;;;;;;;;;;;;;1.01;100.00;90077.16;5074205;28;20030;-69
2021/12/08 09:39:32;;;;;;;;;;;;;;;0.98;100.00;90072.47;5074391;28;19917;-68
2021/12/08 09:42:10;;;;;;;;;;;;;;;2.35;100.00;90071.25;5074005;28;19923;-69
2021/12/08 09:44:38;;;;;;;;;;;;;;;1.44;100.00;90072.94;5074193;28;19925;-68
2021/12/08 09:47:04;;;;;;;;;;;;;;;1.37;100.00;90074.28;5074242;28;19921;-68
2021/12/08 09:49:29;;;;;;;;;;;;;;;1.46;100.00;90078.69;5073572;28;19917;-68
2021/12/08 09:51:57;;;;;;;;;;;;;;;1.97;100.00;90075.59;5074143;28;19923;-68
2021/12/08 09:54:23;;;;;;;;;;;;;;;3.77;94.15;90083.50;5072544;28;20045;-70
2021/12/08 09:56:50;;;;;;;;;;;;;;;2.70;91.44;90083.19;5058566;28;20402;-68
2021/12/08 09:59:17;;;;;;;;;;;;;;;2.65;95.55;90085.09;5074053;28;19926;-68
2021/12/08 10:01:43;;;;;;;;;;;;;;;1.97;99.44;90086.09;5073519;28;20023;-69
2021/12/08 10:04:09;;;;;;;;;;;;;;;1.53;100.00;90086.22;5073566;28;19917;-69
2021/12/08 10:06:36;;;;;;;;;;;;;;;1.24;100.00;90082.78;5073895;28;19944;-68
2021/12/08 10:09:02;;;;;;;;;;;;;;;1.03;100.00;90069.81;5073943;28;19917;-68
2021/12/08 10:11:29;;;;;;;;;;;;;;;0.84;100.00;90074.91;5073514;28;19946;-68
2021/12/08 10:13:54;;;;;;;;;;;;;;;0.86;100.00;90082.50;5088705;28;20354;-68
2021/12/08 10:16:20;;;;;;;;;;;;;;;0.81;100.00;90078.09;5077569;28;20068;-68
2021/12/08 10:18:45;;;;;;;;;;;;;;;0.63;100.00;90072.66;5072978;28;19920;-69
2021/12/08 10:21:13;;;;;;;;;;;;;;;1.43;100.00;90058.28;5090841;28;20412;-68
2021/12/08 10:23:42;;;;;;;;;;;;;;;4.06;87.74;90055.13;5093949;28;19923;-68
2021/12/08 10:26:10;;;;;;;;;;;;;;;6.69;73.72;90054.78;5093397;28;19920;-68
2021/12/08 10:28:47;;;;;;;;;;;;;;;7.03;70.52;90056.75;5093778;28;19912;-68
2021/12/08 10:31:15;;;;;;;;;;;;;;;6.60;67.38;90053.97;5075766;28;19973;-68
2021/12/08 10:39:03;;;;;;;;;;;;;;;6.26;71.56;90059.88;5093355;28;19923;-68
2021/12/08 10:41:42;;;;;;;;;;;;;;;5.73;71.67;90063.28;5093148;28;19930;-68
2021/12/08 10:44:22;;;;;;;;;;;;;;;6.27;71.14;90056.16;5093460;28;19923;-68
2021/12/08 10:46:57;;;;;;;;;;;;;;;6.59;69.96;90057.69;5093379;28;20393;-68
2021/12/08 10:55:05;;;;;;;;;;;;;;;5.43;72.19;90054.22;5093136;28;19923;-68
2021/12/08 10:57:43;;;;;;;;;;;;;;;4.58;75.10;90063.66;5092707;28;19916;-68
2021/12/08 11:00:59;;;;;;;;;;;;;;;;;;;;;
2021/12/08 11:03:44;;;;;;;;;;;;;;;3.96;79.15;90059.78;5009728;28;20276;-68
2021/12/08 11:08:59;;;;;;;;;;;;;;;5.22;75.39;90058.38;5074269;28;20389;-68
2021/12/08 11:11:31;;;;;;;;;;;;;;;5.00;75.53;90059.88;5092343;28;19920;-68
2021/12/08 11:14:08;;;;;;;;;;;;;;;4.71;75.89;90056.78;5092565;28;19916;-68
2021/12/08 11:19:34;;;;;;;;;;;;;;;3.16;87.52;90050.28;5091820;28;20309;-68
2021/12/08 11:22:13;;;;;;;;;;;;;;;3.50;85.18;90052.66;5092445;28;19916;-68
2021/12/08 11:24:58;;;;;;;;;;;;;;;3.96;82.60;90047.41;5092226;28;19973;-68
2021/12/08 11:27:33;;;;;;;;;;;;;;;4.16;83.29;90049.69;5091742;28;19927;-68
2021/12/08 11:30:11;;;;;;;;;;;;;;;4.68;78.55;90045.00;5089968;28;19916;-68
2021/12/08 11:32:45;;;;;;;;;;;;;;;4.11;80.71;90051.63;5091849;28;20368;-68
2021/12/08 11:35:35;;;;;;;;;;;;;;;4.07;80.04;90046.16;5092329;28;19926;-68
2021/12/08 11:38:23;;;;;;;;;;;;;;;4.29;79.59;90047.34;5092276;28;19981;-68
2021/12/08 11:41:03;;;;;;;;;;;;;;;3.37;83.07;90048.91;5091565;28;19916;-68
2021/12/08 11:43:30;;;;;;;;;;;;;;;2.96;89.67;90059.22;5073545;28;19999;-68
2021/12/08 11:46:15;;;;;;;;;;;;;;;2.86;90.85;90059.38;5092083;28;19923;-68
2021/12/08 11:49:04;;;;;;;;;;;;;;;2.69;94.41;90060.63;5091608;28;19916;-67
2021/12/08 11:51:49;;;;;;;;;;;;;;;2.75;94.08;90065.81;5091756;28;19920;-68
2021/12/08 11:54:30;;;;;;;;;;;;;;;2.75;93.74;90058.72;5091769;28;20006;-68
2021/12/08 11:57:00;;;;;;;;;;;;;;;2.48;95.03;90059.28;5091912;28;20412;-68
2021/12/08 11:59:25;;;;;;;;;;;;;;;2.84;96.06;90061.47;5091627;28;19916;-68
2021/12/08 12:01:51;;;;;;;;;;;;;;;2.88;93.63;90067.75;5091310;28;20317;-69
2021/12/08 12:04:16;;;;;;;;;;;;;;;2.73;91.58;90071.34;5073224;28;19928;-69
2021/12/08 12:06:42;;;;;;;;;;;;;;;2.54;93.71;90068.69;5091774;28;19969;-69
2021/12/08 12:09:07;;;;;;;;;;;;;;;2.44;94.45;90073.28;5091667;28;19920;-69
2021/12/08 12:11:34;;;;;;;;;;;;;;;2.54;97.63;90079.19;5091430;28;19999;-67
2021/12/08 12:14:00;;;;;;;;;;;;;;;2.54;96.18;90079.19;5091364;28;19916;-67
2021/12/08 12:16:26;;;;;;;;;;;;;;;2.51;97.08;90077.09;5091399;28;19968;-67
2021/12/08 12:18:56;;;;;;;;;;;;;;;2.45;96.50;90078.22;5072817;28;20014;-67
2021/12/08 12:21:34;;;;;;;;;;;;;;;2.73;95.29;90081.84;5091291;28;19924;-68
2021/12/08 12:24:32;;;;;;;;;;;;;;;2.49;95.81;90081.06;5091307;28;19996;-68
2021/12/08 12:27:00;;;;;;;;;;;;;;;2.37;96.06;90078.88;5046575;28;19926;-68
2021/12/08 12:29:25;;;;;;;;;;;;;;;2.39;96.48;90084.63;5091021;28;20373;-68
2021/12/08 12:32:10;;;;;;;;;;;;;;;2.33;95.57;90077.84;5073025;28;19970;-68
2021/12/08 12:34:37;;;;;;;;;;;;;;;2.31;98.24;90085.22;5091388;28;19917;-68
2021/12/08 12:37:04;;;;;;;;;;;;;;;2.36;99.95;90093.03;5091449;28;19920;-68
2021/12/08 12:39:30;;;;;;;;;;;;;;;2.44;97.99;90089.78;5090798;28;19969;-68
2021/12/08 12:42:15;;;;;;;;;;;;;;;2.24;97.50;90082.94;5090761;28;19924;-67
2021/12/08 12:44:45;;;;;;;;;;;;;;;2.15;100.00;90089.06;5091168;28;19963;-68
2021/12/08 12:47:19;;;;;;;;;;;;;;;2.10;100.00;90095.16;5090771;28;20018;-66
2021/12/08 12:49:49;;;;;;;;;;;;;;;2.11;100.00;90091.47;5091262;28;20305;-67
2021/12/08 12:52:16;;;;;;;;;;;;;;;2.08;100.00;90082.31;5091262;28;20011;-66
2021/12/08 12:54:42;;;;;;;;;;;;;;;2.21;100.00;90087.94;5090350;28;19951;-67
2021/12/08 12:57:08;;;;;;;;;;;;;;;2.50;100.00;90088.66;5090971;28;19920;-68
2021/12/08 12:59:41;;;;;;;;;;;;;;;2.43;99.33;90087.47;5091238;28;20041;-68
2021/12/08 13:02:06;;;;;;;;;;;;;;;2.42;100.00;90088.53;5090400;28;20393;-68
2021/12/08 13:04:35;;;;;;;;;;;;;;;2.47;99.03;90089.22;5090970;28;19950;-68
2021/12/08 13:07:02;;;;;;;;;;;;;;;2.58;98.13;90090.69;5090883;28;19962;-68
2021/12/08 13:09:38;;;;;;;;;;;;;;;3.27;93.85;90094.50;5090653;28;19920;-69
2021/12/08 13:12:09;;;;;;;;;;;;;;;4.77;84.95;90095.94;5091080;28;19965;-69
2021/12/08 13:14:34;;;;;;;;;;;;;;;5.42;78.11;90105.41;5090967;28;20317;-69
2021/12/08 13:17:07;;;;;;;;;;;;;;;6.33;73.06;90097.22;5072480;28;19917;-69
2021/12/08 13:19:40;;;;;;;;;;;;;;;6.33;69.13;90096.44;5090850;28;19920;-69
2021/12/08 13:22:05;;;;;;;;;;;;;;;6.97;69.44;90099.53;5091075;28;19916;-69
2021/12/08 13:24:37;;;;;;;;;;;;;;;7.16;66.40;90089.47;5090502;28;19923;-69
2021/12/08 13:27:06;;;;;;;;;;;;;;;8.84;62.44;90100.13;5091078;28;20390;-69
2021/12/08 13:29:34;;;;;;;;;;;;;;;8.95;61.13;90096.78;5091132;28;20019;-69
2021/12/08 13:32:10;;;;;;;;;;;;;;;9.46;57.91;90097.63;5091533;28;19917;-69
2021/12/08 13:34:36;;;;;;;;;;;;;;;8.90;58.31;90101.50;5094668;28;20015;-69
2021/12/08 13:37:12;;;;;;;;;;;;;;;8.47;60.51;90106.94;5094634;28;20431;-69
2021/12/08 13:39:38;;;;;;;;;;;;;;;7.94;60.68;90113.34;5094164;28;19927;-69
2021/12/08 13:42:13;;;;;;;;;;;;;;;7.05;62.10;90117.25;5094720;28;20408;-69
2021/12/08 13:44:41;;;;;;;;;;;;;;;6.40;65.47;90116.06;5094273;28;20402;-69
2021/12/08 13:47:07;;;;;;;;;;;;;;;6.84;64.98;90117.03;5094001;28;20420;-69
2021/12/08 13:49:45;;;;;;;;;;;;;;;6.59;64.59;90119.25;5094481;28;19959;-69